sensor_id;sensor_type;location;lat;lon;timestamp;temperature;humidity
35495;DHT22;21608;49.300;6.846;2022-11-25T00:01:20;21.10;51.10
35495;DHT22;21608;49.300;6.846;2022-11-25T00:04:21;21.10;51.10
35495;DHT22;21608;49.300;6.846;2022-11-25T00:07:23;21.10;51.10
35495;DHT22;21608;49.300;6.846;2022-11-25T00:10:25;21.20;51.20
35495;DHT22;21608;49.300;6.846;2022-11-25T00:13:27;21.20;51.10
35495;DHT22;21608;49.300;6.846;2022-11-25T00:16:28;21.10;51.10
35495;DHT22;21608;49.300;6.846;2022-11-25T00:19:30;21.10;51.10
35495;DHT22;21608;49.300;6.846;2022-11-25T00:22:32;21.10;51.10
35495;DHT22;21608;49.300;6.846;2022-11-25T00:25:34;21.10;51.10
35495;DHT22;21608;49.300;6.846;2022-11-25T00:28:36;21.10;51.10
35495;DHT22;21608;49.300;6.846;2022-11-25T00:31:39;21.10;51.00
35495;DHT22;21608;49.300;6.846;2022-11-25T00:34:41;21.10;51.00
35495;DHT22;21608;49.300;6.846;2022-11-25T00:37:43;21.10;51.00
35495;DHT22;21608;49.300;6.846;2022-11-25T00:40:45;21.10;51.00
35495;DHT22;21608;49.300;6.846;2022-11-25T00:44:09;21.10;51.00
35495;DHT22;21608;49.300;6.846;2022-11-25T00:47:29;21.10;51.00
35495;DHT22;21608;49.300;6.846;2022-11-25T00:50:31;21.10;51.00
35495;DHT22;21608;49.300;6.846;2022-11-25T00:53:33;21.00;50.90
35495;DHT22;21608;49.300;6.846;2022-11-25T00:56:35;21.00;50.90
35495;DHT22;21608;49.300;6.846;2022-11-25T00:59:36;21.00;50.90
35495;DHT22;21608;49.300;6.846;2022-11-25T01:02:38;21.10;50.90
35495;DHT22;21608;49.300;6.846;2022-11-25T01:05:40;21.10;50.90
35495;DHT22;21608;49.300;6.846;2022-11-25T01:08:42;21.10;51.00
35495;DHT22;21608;49.300;6.846;2022-11-25T01:11:44;21.00;50.90
35495;DHT22;21608;49.300;6.846;2022-11-25T01:14:45;21.00;50.90
35495;DHT22;21608;49.300;6.846;2022-11-25T01:17:48;21.00;50.90
35495;DHT22;21608;49.300;6.846;2022-11-25T01:20:49;21.00;51.40
35495;DHT22;21608;49.300;6.846;2022-11-25T01:23:52;21.00;50.90
35495;DHT22;21608;49.300;6.846;2022-11-25T01:26:54;21.00;50.90
35495;DHT22;21608;49.300;6.846;2022-11-25T01:29:56;21.00;50.80
35495;DHT22;21608;49.300;6.846;2022-11-25T01:32:58;21.00;50.90
35495;DHT22;21608;49.300;6.846;2022-11-25T01:36:06;21.00;50.90
35495;DHT22;21608;49.300;6.846;2022-11-25T01:39:14;21.00;50.90
35495;DHT22;21608;49.300;6.846;2022-11-25T01:42:18;21.00;50.90
35495;DHT22;21608;49.300;6.846;2022-11-25T01:45:33;21.00;50.90
35495;DHT22;21608;49.300;6.846;2022-11-25T01:48:51;21.00;50.90
35495;DHT22;21608;49.300;6.846;2022-11-25T01:52:05;21.00;50.80
35495;DHT22;21608;49.300;6.846;2022-11-25T01:55:21;21.00;50.80
35495;DHT22;21608;49.300;6.846;2022-11-25T01:58:29;20.90;50.80
35495;DHT22;21608;49.300;6.846;2022-11-25T02:01:31;21.00;50.90
35495;DHT22;21608;49.300;6.846;2022-11-25T02:04:34;20.90;50.80
35495;DHT22;21608;49.300;6.846;2022-11-25T02:07:41;21.00;50.90
35495;DHT22;21608;49.300;6.846;2022-11-25T02:10:45;21.00;50.90
35495;DHT22;21608;49.300;6.846;2022-11-25T02:13:48;20.90;50.80
35495;DHT22;21608;49.300;6.846;2022-11-25T02:16:50;20.90;50.80
35495;DHT22;21608;49.300;6.846;2022-11-25T02:20:08;20.90;50.80
35495;DHT22;21608;49.300;6.846;2022-11-25T02:23:31;21.00;50.80
35495;DHT22;21608;49.300;6.846;2022-11-25T02:26:34;20.90;50.80
35495;DHT22;21608;49.300;6.846;2022-11-25T02:29:36;20.90;50.80
35495;DHT22;21608;49.300;6.846;2022-11-25T02:32:44;20.90;50.80
35495;DHT22;21608;49.300;6.846;2022-11-25T02:35:49;20.90;50.80
35495;DHT22;21608;49.300;6.846;2022-11-25T02:38:53;20.90;50.80
35495;DHT22;21608;49.300;6.846;2022-11-25T02:41:58;20.90;50.80
35495;DHT22;21608;49.300;6.846;2022-11-25T02:45:01;20.90;50.80
35495;DHT22;21608;49.300;6.846;2022-11-25T02:48:03;20.80;50.70
35495;DHT22;21608;49.300;6.846;2022-11-25T02:51:07;20.80;50.80
35495;DHT22;21608;49.300;6.846;2022-11-25T02:54:12;20.90;50.80
35495;DHT22;21608;49.300;6.846;2022-11-25T02:57:14;20.90;50.80
35495;DHT22;21608;49.300;6.846;2022-11-25T03:00:16;20.90;50.90
35495;DHT22;21608;49.300;6.846;2022-11-25T03:03:18;20.90;50.80
35495;DHT22;21608;49.300;6.846;2022-11-25T03:06:21;20.90;50.80
35495;DHT22;21608;49.300;6.846;2022-11-25T03:09:23;20.80;50.70
35495;DHT22;21608;49.300;6.846;2022-11-25T03:12:25;20.80;50.80
35495;DHT22;21608;49.300;6.846;2022-11-25T03:15:27;20.90;50.80
35495;DHT22;21608;49.300;6.846;2022-11-25T03:18:28;20.80;50.80
35495;DHT22;21608;49.300;6.846;2022-11-25T03:21:30;20.80;50.80
35495;DHT22;21608;49.300;6.846;2022-11-25T03:24:32;20.80;50.80
35495;DHT22;21608;49.300;6.846;2022-11-25T03:27:36;20.80;50.80
35495;DHT22;21608;49.300;6.846;2022-11-25T03:30:39;20.80;50.70
35495;DHT22;21608;49.300;6.846;2022-11-25T03:33:40;20.80;50.80
35495;DHT22;21608;49.300;6.846;2022-11-25T03:36:42;20.80;50.80
35495;DHT22;21608;49.300;6.846;2022-11-25T03:39:44;20.80;50.80
35495;DHT22;21608;49.300;6.846;2022-11-25T03:42:46;20.80;50.80
35495;DHT22;21608;49.300;6.846;2022-11-25T03:45:49;20.80;50.80
35495;DHT22;21608;49.300;6.846;2022-11-25T03:48:52;20.80;50.80
35495;DHT22;21608;49.300;6.846;2022-11-25T03:51:54;20.80;50.80
35495;DHT22;21608;49.300;6.846;2022-11-25T03:54:56;20.80;50.80
35495;DHT22;21608;49.300;6.846;2022-11-25T03:58:01;20.80;50.80
35495;DHT22;21608;49.300;6.846;2022-11-25T04:01:03;20.80;50.80
35495;DHT22;21608;49.300;6.846;2022-11-25T04:04:06;20.80;50.70
35495;DHT22;21608;49.300;6.846;2022-11-25T04:07:08;20.80;50.80
35495;DHT22;21608;49.300;6.846;2022-11-25T04:10:10;20.80;50.70
35495;DHT22;21608;49.300;6.846;2022-11-25T04:13:12;20.80;50.70
35495;DHT22;21608;49.300;6.846;2022-11-25T04:16:20;20.80;50.70
35495;DHT22;21608;49.300;6.846;2022-11-25T04:19:24;20.80;50.80
35495;DHT22;21608;49.300;6.846;2022-11-25T04:22:26;20.80;50.70
35495;DHT22;21608;49.300;6.846;2022-11-25T04:25:28;20.80;50.70
35495;DHT22;21608;49.300;6.846;2022-11-25T04:28:30;20.80;50.70
35495;DHT22;21608;49.300;6.846;2022-11-25T04:31:32;20.80;50.70
35495;DHT22;21608;49.300;6.846;2022-11-25T04:34:34;20.80;50.70
35495;DHT22;21608;49.300;6.846;2022-11-25T04:37:36;20.70;50.70
35495;DHT22;21608;49.300;6.846;2022-11-25T04:40:38;20.80;50.70
35495;DHT22;21608;49.300;6.846;2022-11-25T04:43:58;20.70;50.60
35495;DHT22;21608;49.300;6.846;2022-11-25T04:47:01;20.70;50.70
35495;DHT22;21608;49.300;6.846;2022-11-25T04:50:11;20.70;50.70
35495;DHT22;21608;49.300;6.846;2022-11-25T04:53:23;20.70;50.70
35495;DHT22;21608;49.300;6.846;2022-11-25T04:56:26;20.70;50.70
35495;DHT22;21608;49.300;6.846;2022-11-25T04:59:29;20.70;50.60
35495;DHT22;21608;49.300;6.846;2022-11-25T05:02:40;20.80;50.70
35495;DHT22;21608;49.300;6.846;2022-11-25T05:05:49;20.70;50.60
35495;DHT22;21608;49.300;6.846;2022-11-25T05:08:51;20.70;50.70
35495;DHT22;21608;49.300;6.846;2022-11-25T05:11:56;20.70;50.70
35495;DHT22;21608;49.300;6.846;2022-11-25T05:14:59;20.70;50.70
35495;DHT22;21608;49.300;6.846;2022-11-25T05:18:01;20.70;50.70
35495;DHT22;21608;49.300;6.846;2022-11-25T05:21:14;20.70;50.80
35495;DHT22;21608;49.300;6.846;2022-11-25T05:24:17;20.70;50.70
35495;DHT22;21608;49.300;6.846;2022-11-25T05:27:22;20.70;50.70
35495;DHT22;21608;49.300;6.846;2022-11-25T05:30:25;20.70;50.70
35495;DHT22;21608;49.300;6.846;2022-11-25T05:33:26;20.70;50.70
35495;DHT22;21608;49.300;6.846;2022-11-25T05:36:29;20.70;50.60
35495;DHT22;21608;49.300;6.846;2022-11-25T05:39:31;20.70;50.60
35495;DHT22;21608;49.300;6.846;2022-11-25T05:43:02;20.70;50.60
35495;DHT22;21608;49.300;6.846;2022-11-25T05:46:06;20.80;50.80
35495;DHT22;21608;49.300;6.846;2022-11-25T05:49:10;20.80;50.70
35495;DHT22;21608;49.300;6.846;2022-11-25T05:52:12;20.80;50.60
35495;DHT22;21608;49.300;6.846;2022-11-25T05:55:24;20.80;50.60
35495;DHT22;21608;49.300;6.846;2022-11-25T05:58:28;20.80;50.60
35495;DHT22;21608;49.300;6.846;2022-11-25T06:01:33;20.70;50.50
35495;DHT22;21608;49.300;6.846;2022-11-25T06:04:35;20.70;50.70
35495;DHT22;21608;49.300;6.846;2022-11-25T06:07:37;20.70;50.80
35495;DHT22;21608;49.300;6.846;2022-11-25T06:10:40;20.70;50.80
35495;DHT22;21608;49.300;6.846;2022-11-25T06:13:43;20.70;50.80
35495;DHT22;21608;49.300;6.846;2022-11-25T06:16:46;20.70;50.80
35495;DHT22;21608;49.300;6.846;2022-11-25T06:19:56;20.70;50.80
35495;DHT22;21608;49.300;6.846;2022-11-25T06:22:58;20.70;50.80
35495;DHT22;21608;49.300;6.846;2022-11-25T06:26:14;20.70;50.90
35495;DHT22;21608;49.300;6.846;2022-11-25T06:29:16;20.70;50.90
35495;DHT22;21608;49.300;6.846;2022-11-25T06:32:22;20.70;50.90
35495;DHT22;21608;49.300;6.846;2022-11-25T06:35:33;20.60;48.30
35495;DHT22;21608;49.300;6.846;2022-11-25T06:38:36;20.10;46.00
35495;DHT22;21608;49.300;6.846;2022-11-25T06:41:38;19.80;45.90
35495;DHT22;21608;49.300;6.846;2022-11-25T06:44:39;19.60;45.70
35495;DHT22;21608;49.300;6.846;2022-11-25T06:47:41;19.50;45.70
35495;DHT22;21608;49.300;6.846;2022-11-25T06:50:43;19.40;45.60
35495;DHT22;21608;49.300;6.846;2022-11-25T06:53:45;19.30;45.80
35495;DHT22;21608;49.300;6.846;2022-11-25T06:56:47;19.30;46.00
35495;DHT22;21608;49.300;6.846;2022-11-25T06:59:52;19.40;46.10
35495;DHT22;21608;49.300;6.846;2022-11-25T07:02:53;19.40;46.00
35495;DHT22;21608;49.300;6.846;2022-11-25T07:05:56;19.50;46.30
35495;DHT22;21608;49.300;6.846;2022-11-25T07:08:59;19.60;46.80
35495;DHT22;21608;49.300;6.846;2022-11-25T07:12:01;19.70;47.20
35495;DHT22;21608;49.300;6.846;2022-11-25T07:15:04;19.90;47.30
35495;DHT22;21608;49.300;6.846;2022-11-25T07:18:06;20.00;47.40
35495;DHT22;21608;49.300;6.846;2022-11-25T07:21:13;20.00;47.50
35495;DHT22;21608;49.300;6.846;2022-11-25T07:24:16;20.10;47.60
35495;DHT22;21608;49.300;6.846;2022-11-25T07:27:18;20.10;47.70
35495;DHT22;21608;49.300;6.846;2022-11-25T07:30:20;20.10;47.80
35495;DHT22;21608;49.300;6.846;2022-11-25T07:33:43;20.10;47.90
35495;DHT22;21608;49.300;6.846;2022-11-25T07:36:46;20.20;48.10
35495;DHT22;21608;49.300;6.846;2022-11-25T07:39:48;20.20;48.20
35495;DHT22;21608;49.300;6.846;2022-11-25T07:42:50;20.20;48.00
35495;DHT22;21608;49.300;6.846;2022-11-25T07:45:52;20.20;47.70
35495;DHT22;21608;49.300;6.846;2022-11-25T07:48:56;20.20;48.00
35495;DHT22;21608;49.300;6.846;2022-11-25T07:51:58;20.10;48.20
35495;DHT22;21608;49.300;6.846;2022-11-25T07:55:05;20.20;48.20
35495;DHT22;21608;49.300;6.846;2022-11-25T07:58:07;20.20;48.30
35495;DHT22;21608;49.300;6.846;2022-11-25T08:01:10;20.30;48.40
35495;DHT22;21608;49.300;6.846;2022-11-25T08:04:13;20.30;48.40
35495;DHT22;21608;49.300;6.846;2022-11-25T08:07:21;20.30;48.50
35495;DHT22;21608;49.300;6.846;2022-11-25T08:10:23;20.30;48.50
35495;DHT22;21608;49.300;6.846;2022-11-25T08:13:25;20.30;48.60
35495;DHT22;21608;49.300;6.846;2022-11-25T08:16:28;20.30;48.60
35495;DHT22;21608;49.300;6.846;2022-11-25T08:19:33;20.30;48.70
35495;DHT22;21608;49.300;6.846;2022-11-25T08:22:36;20.30;48.80
35495;DHT22;21608;49.300;6.846;2022-11-25T08:25:39;20.30;48.90
35495;DHT22;21608;49.300;6.846;2022-11-25T08:28:45;20.30;49.00
35495;DHT22;21608;49.300;6.846;2022-11-25T08:31:47;20.40;49.90
35495;DHT22;21608;49.300;6.846;2022-11-25T08:34:49;20.40;50.20
35495;DHT22;21608;49.300;6.846;2022-11-25T08:37:51;20.40;50.00
35495;DHT22;21608;49.300;6.846;2022-11-25T08:40:53;20.40;50.00
35495;DHT22;21608;49.300;6.846;2022-11-25T08:43:56;20.40;50.20
35495;DHT22;21608;49.300;6.846;2022-11-25T08:46:59;20.50;57.30
35495;DHT22;21608;49.300;6.846;2022-11-25T08:50:05;20.50;52.50
35495;DHT22;21608;49.300;6.846;2022-11-25T08:53:07;20.50;51.20
35495;DHT22;21608;49.300;6.846;2022-11-25T08:56:09;20.50;51.00
35495;DHT22;21608;49.300;6.846;2022-11-25T08:59:11;20.50;50.90
35495;DHT22;21608;49.300;6.846;2022-11-25T09:02:15;20.40;50.80
35495;DHT22;21608;49.300;6.846;2022-11-25T09:05:18;20.50;50.70
35495;DHT22;21608;49.300;6.846;2022-11-25T09:08:20;20.40;50.70
35495;DHT22;21608;49.300;6.846;2022-11-25T09:11:22;20.50;50.70
35495;DHT22;21608;49.300;6.846;2022-11-25T09:14:24;20.60;51.00
35495;DHT22;21608;49.300;6.846;2022-11-25T09:17:26;20.70;50.50
35495;DHT22;21608;49.300;6.846;2022-11-25T09:20:28;20.80;50.50
35495;DHT22;21608;49.300;6.846;2022-11-25T09:23:30;20.80;50.30
35495;DHT22;21608;49.300;6.846;2022-11-25T09:26:32;20.80;50.60
35495;DHT22;21608;49.300;6.846;2022-11-25T09:29:37;20.70;50.70
35495;DHT22;21608;49.300;6.846;2022-11-25T09:32:39;20.70;50.70
35495;DHT22;21608;49.300;6.846;2022-11-25T09:35:41;20.70;50.70
35495;DHT22;21608;49.300;6.846;2022-11-25T09:38:43;20.60;50.60
35495;DHT22;21608;49.300;6.846;2022-11-25T09:42:09;20.60;50.60
35495;DHT22;21608;49.300;6.846;2022-11-25T09:49:13;20.60;50.70
35495;DHT22;21608;49.300;6.846;2022-11-25T09:55:49;20.60;50.70
35495;DHT22;21608;49.300;6.846;2022-11-25T09:59:00;20.60;50.70
35495;DHT22;21608;49.300;6.846;2022-11-25T10:05:57;20.60;50.60
35495;DHT22;21608;49.300;6.846;2022-11-25T10:09:08;20.60;50.70
35495;DHT22;21608;49.300;6.846;2022-11-25T10:15:24;20.60;50.80
35495;DHT22;21608;49.300;6.846;2022-11-25T10:18:37;20.60;50.70
35495;DHT22;21608;49.300;6.846;2022-11-25T10:21:39;20.60;50.80
35495;DHT22;21608;49.300;6.846;2022-11-25T10:24:41;20.60;50.70
35495;DHT22;21608;49.300;6.846;2022-11-25T10:28:10;20.60;50.80
35495;DHT22;21608;49.300;6.846;2022-11-25T10:31:23;20.70;50.90
35495;DHT22;21608;49.300;6.846;2022-11-25T10:34:35;20.70;50.80
35495;DHT22;21608;49.300;6.846;2022-11-25T10:37:42;20.60;50.80
35495;DHT22;21608;49.300;6.846;2022-11-25T10:40:47;20.70;51.00
35495;DHT22;21608;49.300;6.846;2022-11-25T10:43:50;20.70;51.00
35495;DHT22;21608;49.300;6.846;2022-11-25T10:50:50;20.70;51.20
35495;DHT22;21608;49.300;6.846;2022-11-25T10:57:18;20.60;50.90
35495;DHT22;21608;49.300;6.846;2022-11-25T11:00:34;20.70;51.00
35495;DHT22;21608;49.300;6.846;2022-11-25T11:03:36;20.70;50.90
35495;DHT22;21608;49.300;6.846;2022-11-25T11:06:44;20.70;50.90
35495;DHT22;21608;49.300;6.846;2022-11-25T11:09:46;20.70;51.00
35495;DHT22;21608;49.300;6.846;2022-11-25T11:13:03;20.70;51.20
35495;DHT22;21608;49.300;6.846;2022-11-25T11:16:31;20.60;51.30
35495;DHT22;21608;49.300;6.846;2022-11-25T11:19:34;20.70;51.40
35495;DHT22;21608;49.300;6.846;2022-11-25T11:23:04;20.70;51.40
35495;DHT22;21608;49.300;6.846;2022-11-25T11:26:21;20.70;51.30
35495;DHT22;21608;49.300;6.846;2022-11-25T11:29:23;20.70;51.20
35495;DHT22;21608;49.300;6.846;2022-11-25T11:32:27;20.70;51.30
35495;DHT22;21608;49.300;6.846;2022-11-25T11:35:56;20.60;51.30
35495;DHT22;21608;49.300;6.846;2022-11-25T11:52:50;20.60;51.00
35495;DHT22;21608;49.300;6.846;2022-11-25T11:55:57;20.50;49.80
35495;DHT22;21608;49.300;6.846;2022-11-25T12:03:02;20.40;52.10
35495;DHT22;21608;49.300;6.846;2022-11-25T12:06:08;20.40;54.20
35495;DHT22;21608;49.300;6.846;2022-11-25T12:09:18;20.40;54.10
35495;DHT22;21608;49.300;6.846;2022-11-25T12:12:28;20.30;55.00
35495;DHT22;21608;49.300;6.846;2022-11-25T12:15:51;20.30;54.90
35495;DHT22;21608;49.300;6.846;2022-11-25T12:22:16;20.40;55.10
35495;DHT22;21608;49.300;6.846;2022-11-25T12:25:26;20.40;55.60
35495;DHT22;21608;49.300;6.846;2022-11-25T12:28:37;20.50;55.70
35495;DHT22;21608;49.300;6.846;2022-11-25T12:31:44;20.50;56.20
35495;DHT22;21608;49.300;6.846;2022-11-25T12:35:00;20.50;56.10
35495;DHT22;21608;49.300;6.846;2022-11-25T12:38:08;20.50;56.70
35495;DHT22;21608;49.300;6.846;2022-11-25T12:44:36;20.60;57.10
35495;DHT22;21608;49.300;6.846;2022-11-25T12:47:44;20.60;57.20
35495;DHT22;21608;49.300;6.846;2022-11-25T13:01:20;20.70;57.50
35495;DHT22;21608;49.300;6.846;2022-11-25T13:07:57;20.70;57.60
35495;DHT22;21608;49.300;6.846;2022-11-25T13:11:06;20.70;57.80
35495;DHT22;21608;49.300;6.846;2022-11-25T13:14:46;20.70;57.50
35495;DHT22;21608;49.300;6.846;2022-11-25T13:18:00;20.80;57.50
35495;DHT22;21608;49.300;6.846;2022-11-25T13:21:12;20.70;57.20
35495;DHT22;21608;49.300;6.846;2022-11-25T13:24:53;20.80;57.80
35495;DHT22;21608;49.300;6.846;2022-11-25T13:28:00;20.80;58.00
35495;DHT22;21608;49.300;6.846;2022-11-25T13:34:23;20.80;57.80
35495;DHT22;21608;49.300;6.846;2022-11-25T13:37:39;20.90;57.60
35495;DHT22;21608;49.300;6.846;2022-11-25T13:40:55;20.90;57.70
35495;DHT22;21608;49.300;6.846;2022-11-25T13:44:09;20.80;57.90
35495;DHT22;21608;49.300;6.846;2022-11-25T13:47:37;20.90;57.90
35495;DHT22;21608;49.300;6.846;2022-11-25T13:50:39;20.90;57.40
35495;DHT22;21608;49.300;6.846;2022-11-25T13:54:04;20.90;58.00
35495;DHT22;21608;49.300;6.846;2022-11-25T14:09:59;21.00;57.90
35495;DHT22;21608;49.300;6.846;2022-11-25T14:13:30;21.00;58.40
35495;DHT22;21608;49.300;6.846;2022-11-25T14:26:36;21.00;58.60
35495;DHT22;21608;49.300;6.846;2022-11-25T14:33:02;21.00;58.10
35495;DHT22;21608;49.300;6.846;2022-11-25T14:36:10;21.00;58.60
35495;DHT22;21608;49.300;6.846;2022-11-25T14:39:35;21.00;58.50
35495;DHT22;21608;49.300;6.846;2022-11-25T14:42:42;21.00;57.50
35495;DHT22;21608;49.300;6.846;2022-11-25T14:45:45;21.10;57.00
35495;DHT22;21608;49.300;6.846;2022-11-25T14:48:55;21.10;56.40
35495;DHT22;21608;49.300;6.846;2022-11-25T14:51:57;21.10;56.00
35495;DHT22;21608;49.300;6.846;2022-11-25T14:55:01;21.10;55.70
35495;DHT22;21608;49.300;6.846;2022-11-25T14:58:03;21.20;56.60
35495;DHT22;21608;49.300;6.846;2022-11-25T15:01:07;21.10;58.00
35495;DHT22;21608;49.300;6.846;2022-11-25T15:04:19;21.10;58.40
35495;DHT22;21608;49.300;6.846;2022-11-25T15:07:25;21.10;58.30
35495;DHT22;21608;49.300;6.846;2022-11-25T15:13:45;21.10;58.50
35495;DHT22;21608;49.300;6.846;2022-11-25T15:16:48;21.10;58.80
35495;DHT22;21608;49.300;6.846;2022-11-25T15:19:50;21.10;58.50
35495;DHT22;21608;49.300;6.846;2022-11-25T15:22:52;21.10;58.60
35495;DHT22;21608;49.300;6.846;2022-11-25T15:25:54;21.20;58.80
35495;DHT22;21608;49.300;6.846;2022-11-25T15:29:01;21.10;58.70
35495;DHT22;21608;49.300;6.846;2022-11-25T15:32:03;21.10;57.60
35495;DHT22;21608;49.300;6.846;2022-11-25T15:35:06;21.10;58.40
35495;DHT22;21608;49.300;6.846;2022-11-25T15:38:33;21.10;57.90
35495;DHT22;21608;49.300;6.846;2022-11-25T15:41:35;21.10;57.60
35495;DHT22;21608;49.300;6.846;2022-11-25T15:44:43;21.10;57.10
35495;DHT22;21608;49.300;6.846;2022-11-25T15:47:45;21.20;57.70
35495;DHT22;21608;49.300;6.846;2022-11-25T15:50:47;21.20;58.10
35495;DHT22;21608;49.300;6.846;2022-11-25T15:53:53;21.20;58.00
35495;DHT22;21608;49.300;6.846;2022-11-25T15:56:59;21.20;57.60
35495;DHT22;21608;49.300;6.846;2022-11-25T16:00:12;21.20;57.70
35495;DHT22;21608;49.300;6.846;2022-11-25T16:03:19;21.20;57.80
35495;DHT22;21608;49.300;6.846;2022-11-25T16:06:24;21.20;57.50
35495;DHT22;21608;49.300;6.846;2022-11-25T16:09:26;21.20;57.60
35495;DHT22;21608;49.300;6.846;2022-11-25T16:12:31;21.20;56.80
35495;DHT22;21608;49.300;6.846;2022-11-25T16:15:52;21.20;57.80
35495;DHT22;21608;49.300;6.846;2022-11-25T16:22:03;21.30;57.60
35495;DHT22;21608;49.300;6.846;2022-11-25T16:25:08;21.30;57.60
35495;DHT22;21608;49.300;6.846;2022-11-25T16:28:18;21.30;57.40
35495;DHT22;21608;49.300;6.846;2022-11-25T16:31:21;21.30;57.80
35495;DHT22;21608;49.300;6.846;2022-11-25T16:34:24;21.30;57.60
35495;DHT22;21608;49.300;6.846;2022-11-25T16:37:27;21.30;57.30
35495;DHT22;21608;49.300;6.846;2022-11-25T16:40:29;21.30;57.00
35495;DHT22;21608;49.300;6.846;2022-11-25T16:43:30;21.30;56.80
35495;DHT22;21608;49.300;6.846;2022-11-25T16:46:32;21.30;56.90
35495;DHT22;21608;49.300;6.846;2022-11-25T16:49:34;21.30;56.90
35495;DHT22;21608;49.300;6.846;2022-11-25T16:52:37;21.30;56.60
35495;DHT22;21608;49.300;6.846;2022-11-25T16:55:41;21.30;56.20
35495;DHT22;21608;49.300;6.846;2022-11-25T16:58:43;21.30;56.30
35495;DHT22;21608;49.300;6.846;2022-11-25T17:01:45;21.30;56.10
35495;DHT22;21608;49.300;6.846;2022-11-25T17:04:48;21.30;55.90
35495;DHT22;21608;49.300;6.846;2022-11-25T17:07:50;21.30;56.00
35495;DHT22;21608;49.300;6.846;2022-11-25T17:10:54;21.30;55.70
35495;DHT22;21608;49.300;6.846;2022-11-25T17:14:02;21.40;55.70
35495;DHT22;21608;49.300;6.846;2022-11-25T17:17:04;21.40;55.90
35495;DHT22;21608;49.300;6.846;2022-11-25T17:20:16;21.40;55.90
35495;DHT22;21608;49.300;6.846;2022-11-25T17:23:18;21.40;55.60
35495;DHT22;21608;49.300;6.846;2022-11-25T17:26:35;21.40;55.50
35495;DHT22;21608;49.300;6.846;2022-11-25T17:29:40;21.40;55.50
35495;DHT22;21608;49.300;6.846;2022-11-25T17:32:44;21.40;55.50
35495;DHT22;21608;49.300;6.846;2022-11-25T17:35:46;21.40;55.40
35495;DHT22;21608;49.300;6.846;2022-11-25T17:38:48;21.40;55.50
35495;DHT22;21608;49.300;6.846;2022-11-25T17:41:50;21.40;55.50
35495;DHT22;21608;49.300;6.846;2022-11-25T17:44:52;21.30;55.30
35495;DHT22;21608;49.300;6.846;2022-11-25T17:47:55;21.40;55.50
35495;DHT22;21608;49.300;6.846;2022-11-25T17:50:56;21.40;55.50
35495;DHT22;21608;49.300;6.846;2022-11-25T17:54:00;21.40;55.60
35495;DHT22;21608;49.300;6.846;2022-11-25T17:57:06;21.40;55.60
35495;DHT22;21608;49.300;6.846;2022-11-25T18:00:12;21.40;55.50
35495;DHT22;21608;49.300;6.846;2022-11-25T18:03:15;21.40;55.50
35495;DHT22;21608;49.300;6.846;2022-11-25T18:06:17;21.40;55.50
35495;DHT22;21608;49.300;6.846;2022-11-25T18:09:19;21.40;55.40
35495;DHT22;21608;49.300;6.846;2022-11-25T18:12:26;21.40;55.60
35495;DHT22;21608;49.300;6.846;2022-11-25T18:15:29;21.50;55.60
35495;DHT22;21608;49.300;6.846;2022-11-25T18:18:32;21.40;55.20
35495;DHT22;21608;49.300;6.846;2022-11-25T18:21:34;21.50;55.30
35495;DHT22;21608;49.300;6.846;2022-11-25T18:24:35;21.50;55.20
35495;DHT22;21608;49.300;6.846;2022-11-25T18:27:38;21.50;55.50
35495;DHT22;21608;49.300;6.846;2022-11-25T18:30:40;21.50;55.30
35495;DHT22;21608;49.300;6.846;2022-11-25T18:33:41;21.50;55.40
35495;DHT22;21608;49.300;6.846;2022-11-25T18:36:44;21.50;55.40
35495;DHT22;21608;49.300;6.846;2022-11-25T18:39:46;21.50;55.40
35495;DHT22;21608;49.300;6.846;2022-11-25T18:42:49;21.50;55.30
35495;DHT22;21608;49.300;6.846;2022-11-25T18:45:53;21.50;55.30
35495;DHT22;21608;49.300;6.846;2022-11-25T18:48:56;21.50;55.00
35495;DHT22;21608;49.300;6.846;2022-11-25T18:51:58;21.50;55.40
35495;DHT22;21608;49.300;6.846;2022-11-25T18:55:00;21.60;54.90
35495;DHT22;21608;49.300;6.846;2022-11-25T18:58:02;21.60;54.70
35495;DHT22;21608;49.300;6.846;2022-11-25T19:01:09;21.60;54.80
35495;DHT22;21608;49.300;6.846;2022-11-25T19:04:16;21.60;54.60
35495;DHT22;21608;49.300;6.846;2022-11-25T19:07:18;21.60;54.50
35495;DHT22;21608;49.300;6.846;2022-11-25T19:10:22;21.60;54.90
35495;DHT22;21608;49.300;6.846;2022-11-25T19:16:28;21.70;54.90
35495;DHT22;21608;49.300;6.846;2022-11-25T19:19:30;21.70;54.90
35495;DHT22;21608;49.300;6.846;2022-11-25T19:22:32;21.70;54.90
35495;DHT22;21608;49.300;6.846;2022-11-25T19:25:34;21.70;54.80
35495;DHT22;21608;49.300;6.846;2022-11-25T19:28:36;21.70;55.10
35495;DHT22;21608;49.300;6.846;2022-11-25T19:31:38;21.70;54.80
35495;DHT22;21608;49.300;6.846;2022-11-25T19:34:42;21.70;54.80
35495;DHT22;21608;49.300;6.846;2022-11-25T19:37:46;21.70;54.80
35495;DHT22;21608;49.300;6.846;2022-11-25T19:40:48;21.70;54.80
35495;DHT22;21608;49.300;6.846;2022-11-25T19:43:50;21.80;54.90
35495;DHT22;21608;49.300;6.846;2022-11-25T19:46:51;21.80;55.20
35495;DHT22;21608;49.300;6.846;2022-11-25T19:50:26;21.70;54.60
35495;DHT22;21608;49.300;6.846;2022-11-25T19:53:29;21.80;54.60
35495;DHT22;21608;49.300;6.846;2022-11-25T19:56:34;21.70;54.60
35495;DHT22;21608;49.300;6.846;2022-11-25T19:59:38;21.80;54.80
35495;DHT22;21608;49.300;6.846;2022-11-25T20:02:40;21.70;54.70
35495;DHT22;21608;49.300;6.846;2022-11-25T20:05:43;21.70;54.80
35495;DHT22;21608;49.300;6.846;2022-11-25T20:08:46;21.80;54.70
35495;DHT22;21608;49.300;6.846;2022-11-25T20:11:47;21.70;54.60
35495;DHT22;21608;49.300;6.846;2022-11-25T20:14:54;21.70;54.60
35495;DHT22;21608;49.300;6.846;2022-11-25T20:17:58;21.70;54.70
35495;DHT22;21608;49.300;6.846;2022-11-25T20:21:02;21.80;54.70
35495;DHT22;21608;49.300;6.846;2022-11-25T20:24:11;21.70;54.60
35495;DHT22;21608;49.300;6.846;2022-11-25T20:27:15;21.80;54.70
35495;DHT22;21608;49.300;6.846;2022-11-25T20:30:22;21.80;54.60
35495;DHT22;21608;49.300;6.846;2022-11-25T20:33:24;21.80;54.50
35495;DHT22;21608;49.300;6.846;2022-11-25T20:36:30;21.80;54.60
35495;DHT22;21608;49.300;6.846;2022-11-25T20:39:32;21.80;54.50
35495;DHT22;21608;49.300;6.846;2022-11-25T20:42:34;21.80;54.50
35495;DHT22;21608;49.300;6.846;2022-11-25T20:45:37;21.80;54.50
35495;DHT22;21608;49.300;6.846;2022-11-25T20:48:39;21.80;54.50
35495;DHT22;21608;49.300;6.846;2022-11-25T20:51:41;21.80;54.30
35495;DHT22;21608;49.300;6.846;2022-11-25T20:54:43;21.80;54.40
35495;DHT22;21608;49.300;6.846;2022-11-25T20:57:45;21.80;54.30
35495;DHT22;21608;49.300;6.846;2022-11-25T21:00:48;21.80;54.50
35495;DHT22;21608;49.300;6.846;2022-11-25T21:03:57;21.80;54.30
35495;DHT22;21608;49.300;6.846;2022-11-25T21:06:59;21.80;54.90
35495;DHT22;21608;49.300;6.846;2022-11-25T21:10:01;21.70;54.20